Crawfordsville, Indiana
Current Conditions -  °F | °C
As of 6:54 AM on Tuesday 27 Jan 2015 (Local Time) from KLAF Reporting Station
Haze Haze  
Wind Chill: 17°   Ceiling: 500
Heat Index: 25°   Visibility: 3mi
Dew Point: 24°   Wind: 7mph
Humidity: 96%   Direction: 40°NE
Pressure: 30.01"   Gusts: NA
Location:  40.04°N, 86.9°W
Report Text: KLAF 271154Z 04006KT 3SM BR BKN005 OVC010 M04/M04 A3001 RMK AO2 SLP167 I6002 T10391044 11033 21039 53023
Loading
Personal Weather Stations






























Interactive Weather Map New forecast layout! Learn more

10-Day Weather Forecast

Advertisements
Track Severe Weather on mobile